createdAt,value
2018-01-08T00:00:25.103Z,99.99
2018-01-08T00:01:35.080Z,99.99
2018-01-08T00:02:45.127Z,99.99
2018-01-08T00:03:55.103Z,99.99
2018-01-08T00:05:04.816Z,99.99
2018-01-08T00:06:14.798Z,99.99
2018-01-08T00:07:24.787Z,99.99
2018-01-08T00:08:34.965Z,99.99
2018-01-08T00:09:44.948Z,99.99
2018-01-08T00:10:54.932Z,99.99
2018-01-08T00:12:04.644Z,99.99
2018-01-08T00:13:14.626Z,99.99
2018-01-08T00:14:24.603Z,99.99
2018-01-08T00:15:34.067Z,99.99
2018-01-08T00:16:44.046Z,99.99
2018-01-08T00:17:54.027Z,99.99
2018-01-08T00:19:03.738Z,99.99
2018-01-08T00:20:13.717Z,99.99
2018-01-08T00:21:23.694Z,99.99
2018-01-08T00:22:33.679Z,99.99
2018-01-08T00:23:43.130Z,99.99
2018-01-08T00:24:53.112Z,99.99
2018-01-08T00:26:03.091Z,99.99
2018-01-08T00:27:12.543Z,99.99
2018-01-08T00:28:22.521Z,99.99
2018-01-08T00:29:32.501Z,99.99
2018-01-08T00:30:42.211Z,99.99
2018-01-08T00:31:51.662Z,99.99
2018-01-08T00:33:01.646Z,99.99
2018-01-08T00:34:11.645Z,99.99
2018-01-08T00:35:21.627Z,99.99
2018-01-08T00:36:31.603Z,99.99
2018-01-08T00:37:41.056Z,99.99
2018-01-08T00:38:51.043Z,99.99
2018-01-08T00:40:01.020Z,99.99
2018-01-08T00:41:10.468Z,99.99
2018-01-08T00:42:20.442Z,99.99
2018-01-08T00:43:30.469Z,99.99
2018-01-08T00:44:40.181Z,99.99
2018-01-08T00:45:49.892Z,99.99
2018-01-08T00:46:59.604Z,99.99
2018-01-08T00:48:09.317Z,99.99
2018-01-08T00:49:19.300Z,99.99
2018-01-08T00:50:29.280Z,99.99
2018-01-08T00:51:38.992Z,99.99
2018-01-08T00:52:48.974Z,99.99
2018-01-08T00:53:58.688Z,99.99
2018-01-08T00:55:08.666Z,99.99
2018-01-08T00:56:18.671Z,99.99
2018-01-08T00:57:28.124Z,99.99
2018-01-08T00:58:38.102Z,99.99
2018-01-08T00:59:48.081Z,99.99
2018-01-08T01:00:58.059Z,99.99
2018-01-08T01:02:07.775Z,99.99
2018-01-08T01:03:17.830Z,99.99
2018-01-08T01:04:27.543Z,99.99
2018-01-08T01:05:37.252Z,99.99
2018-01-08T01:06:47.229Z,99.99
2018-01-08T01:07:57.213Z,99.99
2018-01-08T01:09:07.198Z,99.99
2018-01-08T01:10:16.913Z,99.99
2018-01-08T01:11:26.895Z,99.99
2018-01-08T01:12:36.715Z,99.99
2018-01-08T01:13:46.700Z,99.99
2018-01-08T01:14:56.676Z,99.99
2018-01-08T01:16:06.130Z,99.99
2018-01-08T01:17:16.106Z,99.99
2018-01-08T01:18:25.817Z,99.99
2018-01-08T01:19:35.536Z,99.99
2018-01-08T01:20:45.516Z,99.99
2018-01-08T01:21:55.500Z,99.99
2018-01-08T01:23:05.219Z,99.99
2018-01-08T01:24:15.203Z,99.99
2018-01-08T01:25:25.186Z,99.99
2018-01-08T01:26:34.686Z,99.99
2018-01-08T01:27:44.397Z,99.99
2018-01-08T01:28:53.843Z,99.99
2018-01-08T01:30:03.823Z,99.99
2018-01-08T01:31:13.808Z,99.99
2018-01-08T01:32:23.788Z,99.99
2018-01-08T01:33:33.512Z,99.99
2018-01-08T01:34:43.502Z,99.99
2018-01-08T01:35:53.480Z,99.99
2018-01-08T01:37:03.197Z,99.99
2018-01-08T01:38:13.174Z,99.99
2018-01-08T01:39:23.155Z,99.99
2018-01-08T01:40:33.130Z,99.99
2018-01-08T01:41:43.112Z,99.99
2018-01-08T01:42:52.848Z,99.99
2018-01-08T01:44:02.838Z,99.99
2018-01-08T01:45:12.283Z,99.99
2018-01-08T01:46:22.257Z,99.99
2018-01-08T01:47:32.236Z,99.99
2018-01-08T01:48:41.953Z,99.99
2018-01-08T01:49:51.939Z,99.99
2018-01-08T01:51:01.652Z,99.99
2018-01-08T01:52:11.638Z,99.99
2018-01-08T01:53:21.619Z,99.99
2018-01-08T01:54:31.391Z,99.99
2018-01-08T01:55:41.104Z,99.99
2018-01-08T01:56:51.081Z,99.99
2018-01-08T01:58:01.058Z,99.99
2018-01-08T01:59:10.821Z,99.99
2018-01-08T02:00:20.800Z,99.99
2018-01-08T02:01:30.782Z,99.99
2018-01-08T02:02:40.504Z,99.99
2018-01-08T02:03:50.481Z,99.99
2018-01-08T02:05:00.459Z,99.99
2018-01-08T02:06:09.909Z,99.99
2018-01-08T02:07:19.638Z,99.99
2018-01-08T02:08:29.614Z,99.99
2018-01-08T02:09:39.331Z,99.99
2018-01-08T02:10:49.308Z,99.99
2018-01-08T02:11:59.023Z,99.99
2018-01-08T02:13:08.202Z,99.99
2018-01-08T02:14:18.183Z,99.99
2018-01-08T02:15:28.160Z,99.99
2018-01-08T02:16:38.135Z,99.99
2018-01-08T02:17:47.854Z,99.99
2018-01-08T02:18:57.884Z,99.99
2018-01-08T02:20:07.604Z,99.99
2018-01-08T02:21:17.597Z,99.99
2018-01-08T02:22:27.576Z,99.99
2018-01-08T02:23:37.289Z,99.99
2018-01-08T02:24:47.270Z,99.99
2018-01-08T02:25:56.980Z,99.99
2018-01-08T02:27:06.962Z,99.99
2018-01-08T02:28:16.409Z,99.99
2018-01-08T02:29:26.387Z,99.99
2018-01-08T02:30:36.098Z,99.99
2018-01-08T02:31:46.079Z,99.99
2018-01-08T02:32:56.073Z,99.99
2018-01-08T02:34:06.052Z,99.99
2018-01-08T02:35:15.762Z,99.99
2018-01-08T02:36:25.750Z,99.99
2018-01-08T02:37:35.196Z,99.99
2018-01-08T02:38:44.678Z,99.99
2018-01-08T02:39:54.222Z,99.99
2018-01-08T02:41:04.268Z,99.99
2018-01-08T02:42:13.979Z,99.99
2018-01-08T02:43:23.955Z,99.99
2018-01-08T02:44:33.942Z,99.99
2018-01-08T02:45:43.915Z,99.99
2018-01-08T02:46:53.627Z,99.99
2018-01-08T02:48:03.666Z,99.99
2018-01-08T02:49:13.685Z,99.99
2018-01-08T02:50:23.381Z,99.99
2018-01-08T02:51:33.104Z,99.99
2018-01-08T02:52:43.082Z,99.99
2018-01-08T02:53:53.058Z,99.99
2018-01-08T02:55:03.042Z,99.99
2018-01-08T02:56:12.763Z,99.99
2018-01-08T02:57:22.744Z,99.99
2018-01-08T02:58:32.741Z,99.99
2018-01-08T02:59:42.453Z,99.99
2018-01-08T03:00:52.428Z,99.99
2018-01-08T03:02:02.434Z,99.99
2018-01-08T03:03:13.159Z,99.99
2018-01-08T03:04:23.135Z,99.99
2018-01-08T03:05:33.117Z,99.99
2018-01-08T03:06:42.842Z,99.99
2018-01-08T03:07:52.817Z,99.99
2018-01-08T03:09:02.947Z,99.99
2018-01-08T03:10:12.657Z,99.99
2018-01-08T03:11:22.634Z,99.99
2018-01-08T03:12:32.609Z,99.99
2018-01-08T03:13:42.321Z,99.99
2018-01-08T03:14:52.348Z,99.99
2018-01-08T03:16:02.066Z,99.99
2018-01-08T03:17:11.776Z,99.99
2018-01-08T03:18:21.748Z,99.99
2018-01-08T03:19:31.721Z,99.99
2018-01-08T03:20:41.696Z,99.99
2018-01-08T03:21:51.456Z,99.99
2018-01-08T03:23:01.432Z,99.99
2018-01-08T03:24:11.144Z,99.99
2018-01-08T03:25:21.124Z,99.99
2018-01-08T03:26:31.105Z,99.99
2018-01-08T03:27:41.078Z,99.99
2018-01-08T03:28:51.057Z,99.99
2018-01-08T03:30:01.032Z,99.99
2018-01-08T03:31:10.528Z,99.99
2018-01-08T03:32:20.524Z,99.99
2018-01-08T03:33:30.504Z,99.99
2018-01-08T03:34:40.215Z,99.99
2018-01-08T03:35:50.204Z,99.99
2018-01-08T03:37:00.189Z,99.99
2018-01-08T03:38:10.166Z,99.99
2018-01-08T03:39:20.148Z,99.99
2018-01-08T03:40:30.135Z,99.99
2018-01-08T03:41:39.855Z,99.99
2018-01-08T03:42:49.565Z,99.99
2018-01-08T03:43:59.546Z,99.99
2018-01-08T03:45:09.260Z,99.99
2018-01-08T03:46:18.972Z,99.99
2018-01-08T03:47:28.947Z,99.99
2018-01-08T03:48:38.652Z,99.99
2018-01-08T03:49:48.623Z,99.99
2018-01-08T03:50:58.336Z,99.99
2018-01-08T03:52:08.050Z,99.99
2018-01-08T03:53:17.761Z,99.99
2018-01-08T03:54:27.466Z,99.99
2018-01-08T03:55:37.176Z,99.99
2018-01-08T03:56:47.153Z,99.99
2018-01-08T03:57:57.129Z,99.99
2018-01-08T03:59:07.107Z,99.99
2018-01-08T04:03:25.482Z,99.99
2018-01-08T04:04:35.191Z,99.99
2018-01-08T04:05:45.164Z,99.99
2018-01-08T04:06:55.137Z,99.99
2018-01-08T04:08:05.114Z,99.99
2018-01-08T04:09:15.090Z,99.99
2018-01-08T04:10:25.065Z,99.99
2018-01-08T04:11:35.039Z,99.99
2018-01-08T04:12:45.012Z,99.99
2018-01-08T04:13:54.991Z,99.99
2018-01-08T04:15:04.435Z,99.99
2018-01-08T04:16:14.411Z,99.99
2018-01-08T04:17:24.386Z,99.99
2018-01-08T04:18:34.106Z,99.99
2018-01-08T04:19:44.080Z,99.99
2018-01-08T04:20:54.152Z,99.99
2018-01-08T04:22:04.131Z,99.99
2018-01-08T04:23:14.119Z,99.99
2018-01-08T04:24:24.093Z,99.99
2018-01-08T04:25:33.542Z,99.99
2018-01-08T04:26:43.517Z,99.99
2018-01-08T04:27:53.491Z,99.99
2018-01-08T04:29:03.472Z,99.99
2018-01-08T04:30:13.449Z,99.99
2018-01-08T04:31:23.155Z,99.99
2018-01-08T04:32:32.915Z,99.99
2018-01-08T04:33:42.115Z,99.99
2018-01-08T04:34:52.089Z,99.99
2018-01-08T04:36:02.064Z,99.99
2018-01-08T04:37:11.565Z,99.99
2018-01-08T04:38:21.547Z,99.99
2018-01-08T04:39:31.525Z,99.99
2018-01-08T04:40:41.500Z,99.99
2018-01-08T04:41:51.213Z,99.99
2018-01-08T04:43:01.192Z,99.99
2018-01-08T04:44:11.163Z,99.99
2018-01-08T04:45:20.917Z,99.99
2018-01-08T04:46:30.892Z,99.99
2018-01-08T04:47:40.865Z,99.99
2018-01-08T04:48:50.852Z,99.99
2018-01-08T04:50:00.597Z,99.99
2018-01-08T04:51:10.574Z,99.99
2018-01-08T04:52:20.545Z,99.99
2018-01-08T04:53:30.526Z,99.99
2018-01-08T04:54:40.499Z,99.99
2018-01-08T04:55:50.523Z,99.99
2018-01-08T04:57:00.502Z,99.99
2018-01-08T04:58:10.220Z,99.99
2018-01-08T04:59:20.201Z,99.99
2018-01-08T05:00:29.914Z,99.99
2018-01-08T05:01:39.362Z,99.99
2018-01-08T05:02:49.338Z,99.99
2018-01-08T05:03:59.316Z,99.99
2018-01-08T05:05:09.292Z,99.99
2018-01-08T05:06:19.017Z,99.99
2018-01-08T05:07:28.988Z,99.99
2018-01-08T05:08:38.695Z,99.99
2018-01-08T05:09:48.677Z,99.99
2018-01-08T05:10:58.653Z,99.99
2018-01-08T05:12:08.630Z,99.99
2018-01-08T05:13:18.605Z,99.99
2018-01-08T05:14:28.584Z,99.99
2018-01-08T05:15:38.305Z,99.99
2018-01-08T05:16:48.331Z,99.99
2018-01-08T05:17:58.310Z,99.99
2018-01-08T05:19:08.287Z,99.99
2018-01-08T05:20:18.005Z,99.99
2018-01-08T05:21:27.981Z,99.99
2018-01-08T05:22:37.957Z,99.99
2018-01-08T05:23:47.947Z,99.99
2018-01-08T05:24:57.924Z,99.99
2018-01-08T05:26:07.638Z,99.99
2018-01-08T05:27:17.611Z,99.99
2018-01-08T05:28:27.588Z,99.99
2018-01-08T05:29:37.316Z,99.99
2018-01-08T05:30:47.288Z,99.99
2018-01-08T05:31:57.264Z,99.99
2018-01-08T05:33:07.243Z,99.99
2018-01-08T05:34:16.961Z,99.99
2018-01-08T05:35:26.672Z,99.99
2018-01-08T05:36:36.437Z,99.99
2018-01-08T05:37:46.425Z,99.99
2018-01-08T05:38:56.405Z,99.99
2018-01-08T05:40:06.389Z,99.99
2018-01-08T05:41:16.365Z,99.99
2018-01-08T05:42:26.339Z,99.99
2018-01-08T05:43:36.054Z,99.99
2018-01-08T05:44:45.772Z,99.99
2018-01-08T05:45:55.483Z,99.99
2018-01-08T05:47:05.463Z,99.99
2018-01-08T05:48:14.907Z,99.99
2018-01-08T05:49:24.889Z,99.99
2018-01-08T05:50:34.334Z,99.99
2018-01-08T05:51:44.312Z,99.99
2018-01-08T05:52:54.282Z,99.99
2018-01-08T05:54:04.269Z,99.99
2018-01-08T05:55:14.244Z,99.99
2018-01-08T05:56:24.232Z,99.99
2018-01-08T05:57:33.940Z,99.99
2018-01-08T05:58:43.924Z,99.99
2018-01-08T05:59:53.945Z,99.99
2018-01-08T06:01:03.925Z,99.99
2018-01-08T06:02:13.638Z,99.99
2018-01-08T06:03:23.346Z,99.99
2018-01-08T06:04:33.369Z,99.99
2018-01-08T06:05:43.080Z,99.99
2018-01-08T06:06:53.063Z,99.99
2018-01-08T06:08:03.045Z,99.99
2018-01-08T06:09:12.227Z,99.99
2018-01-08T06:10:21.949Z,99.99
2018-01-08T06:11:31.923Z,99.99
2018-01-08T06:12:41.901Z,99.99
2018-01-08T06:13:51.881Z,99.99
2018-01-08T06:15:01.860Z,99.99
2018-01-08T06:16:11.572Z,99.99
2018-01-08T06:17:21.551Z,99.99
2018-01-08T06:18:31.263Z,99.99
2018-01-08T06:19:41.239Z,99.99
2018-01-08T06:20:51.011Z,99.99
2018-01-08T06:22:00.990Z,99.99
2018-01-08T06:23:11.022Z,99.99
2018-01-08T06:24:21.009Z,99.99
2018-01-08T06:25:30.719Z,99.99
2018-01-08T06:26:40.163Z,99.99
2018-01-08T06:27:50.140Z,99.99
2018-01-08T06:29:00.127Z,99.99
2018-01-08T06:30:09.843Z,99.99
2018-01-08T06:31:19.555Z,99.99
2018-01-08T06:32:29.286Z,99.99
2018-01-08T06:33:38.994Z,99.99
2018-01-08T06:34:49.065Z,99.99
2018-01-08T06:35:58.781Z,99.99
2018-01-08T06:37:08.763Z,99.99
2018-01-08T06:38:18.746Z,99.99
2018-01-08T06:39:28.511Z,99.99
2018-01-08T06:40:38.218Z,99.99
2018-01-08T06:41:48.198Z,99.99
2018-01-08T06:42:58.180Z,99.99
2018-01-08T06:44:07.895Z,99.99
2018-01-08T06:45:17.869Z,99.99
2018-01-08T06:46:27.847Z,99.99
2018-01-08T06:47:37.821Z,99.99
2018-01-08T06:48:47.793Z,99.99
2018-01-08T06:49:57.766Z,99.99
2018-01-08T06:51:07.745Z,99.99
2018-01-08T06:52:17.735Z,99.99
2018-01-08T06:53:27.440Z,99.99
2018-01-08T06:54:37.432Z,99.99
2018-01-08T06:55:47.407Z,99.99
2018-01-08T06:56:57.390Z,99.99
2018-01-08T06:58:07.098Z,99.99
2018-01-08T06:59:16.806Z,99.99
2018-01-08T07:00:26.259Z,99.99
2018-01-08T07:01:36.241Z,99.99
2018-01-08T07:02:45.950Z,99.99
2018-01-08T07:03:56.026Z,99.99
2018-01-08T07:05:06.006Z,99.99
2018-01-08T07:06:15.991Z,99.99
2018-01-08T07:07:25.967Z,99.99
2018-01-08T07:08:35.943Z,99.99
2018-01-08T07:09:45.928Z,99.99
2018-01-08T07:10:55.374Z,99.99
2018-01-08T07:12:05.352Z,99.99
2018-01-08T07:13:15.337Z,99.99
2018-01-08T07:14:25.049Z,99.99
2018-01-08T07:15:34.545Z,99.99
2018-01-08T07:16:44.526Z,99.99
2018-01-08T07:17:54.506Z,99.99
2018-01-08T07:19:04.218Z,99.99
2018-01-08T07:20:13.666Z,99.99
2018-01-08T07:21:23.642Z,99.99
2018-01-08T07:22:33.085Z,99.99
2018-01-08T07:23:42.869Z,99.99
2018-01-08T07:24:52.852Z,99.99
2018-01-08T07:26:02.600Z,99.99
2018-01-08T07:27:15.682Z,99.99
2018-01-08T07:28:25.666Z,99.99
2018-01-08T07:29:35.675Z,99.99
2018-01-08T07:30:45.394Z,99.99
2018-01-08T07:31:55.112Z,99.99
2018-01-08T07:33:04.874Z,99.99
2018-01-08T07:34:14.854Z,99.99
2018-01-08T07:35:24.571Z,99.99
2018-01-08T07:36:34.564Z,99.99
2018-01-08T07:37:44.537Z,99.99
2018-01-08T07:38:54.529Z,99.99
2018-01-08T07:40:04.514Z,99.99
2018-01-08T07:41:14.299Z,99.99
2018-01-08T07:42:24.277Z,99.99
2018-01-08T07:43:33.989Z,99.99
2018-01-08T07:44:44.020Z,99.99
2018-01-08T07:45:53.998Z,99.99
2018-01-08T07:47:03.711Z,99.99
2018-01-08T07:48:13.201Z,99.99
2018-01-08T07:49:23.181Z,99.99
2018-01-08T07:50:33.159Z,99.99
2018-01-08T07:51:43.139Z,99.99
2018-01-08T07:52:53.119Z,99.99
2018-01-08T07:54:03.099Z,99.99
2018-01-08T07:55:12.833Z,99.99
2018-01-08T07:56:22.560Z,99.99
2018-01-08T07:57:32.271Z,99.99
2018-01-08T07:58:41.979Z,99.99
2018-01-08T07:59:51.958Z,99.99
2018-01-08T08:01:01.957Z,99.99
2018-01-08T08:02:11.675Z,99.99
2018-01-08T08:03:21.654Z,99.99
2018-01-08T08:04:31.636Z,99.99
2018-01-08T08:05:41.348Z,99.99
2018-01-08T08:06:51.323Z,99.99
2018-01-08T08:08:01.402Z,99.99
2018-01-08T08:09:10.853Z,99.99
2018-01-08T08:10:20.829Z,99.99
2018-01-08T08:11:30.846Z,99.99
2018-01-08T08:12:40.827Z,99.99
2018-01-08T08:13:50.892Z,99.99
2018-01-08T08:15:00.868Z,99.99
2018-01-08T08:16:10.588Z,99.99
2018-01-08T08:17:20.573Z,99.99
2018-01-08T08:18:30.546Z,99.99
2018-01-08T08:19:40.262Z,99.99
2018-01-08T08:20:50.279Z,99.99
2018-01-08T08:22:00.307Z,99.99
2018-01-08T08:23:10.292Z,99.99
2018-01-08T08:24:20.269Z,99.99
2018-01-08T08:25:30.298Z,99.99
2018-01-08T08:26:40.274Z,99.99
2018-01-08T08:27:50.250Z,99.99
2018-01-08T08:29:00.237Z,99.99
2018-01-08T08:30:09.684Z,99.99
2018-01-08T08:31:19.776Z,99.99
2018-01-08T08:32:29.492Z,99.99
2018-01-08T08:33:39.219Z,99.99
2018-01-08T08:34:48.939Z,99.99
2018-01-08T08:35:58.922Z,99.99
2018-01-08T08:37:08.904Z,99.99
2018-01-08T08:38:18.940Z,99.99
2018-01-08T08:39:28.929Z,99.99
2018-01-08T08:40:38.642Z,99.99
2018-01-08T08:41:48.614Z,99.99
2018-01-08T08:42:58.327Z,99.99
2018-01-08T08:44:08.040Z,99.99
2018-01-08T08:45:18.016Z,99.99
2018-01-08T08:46:28.011Z,99.99
2018-01-08T08:47:37.729Z,99.99
2018-01-08T08:48:47.444Z,99.99
2018-01-08T08:49:57.157Z,99.99
2018-01-08T08:51:06.605Z,99.99
2018-01-08T08:52:16.585Z,99.99
2018-01-08T08:53:26.307Z,99.99
2018-01-08T08:54:36.405Z,99.99
2018-01-08T08:55:46.385Z,99.99
2018-01-08T08:56:56.369Z,99.99
2018-01-08T08:58:06.083Z,99.99
2018-01-08T08:59:21.775Z,99.99
2018-01-08T09:00:31.753Z,99.99
2018-01-08T09:01:41.769Z,99.99
2018-01-08T09:02:51.804Z,99.99
2018-01-08T09:04:01.795Z,99.99
2018-01-08T09:05:11.774Z,99.99
2018-01-08T09:06:21.761Z,99.99
2018-01-08T09:07:31.482Z,99.99
2018-01-08T09:08:41.582Z,99.99
2018-01-08T09:09:51.302Z,99.99
2018-01-08T09:11:01.282Z,99.99
2018-01-08T09:12:10.729Z,99.99
2018-01-08T09:13:20.710Z,99.99
2018-01-08T09:14:30.440Z,99.99
2018-01-08T09:15:39.971Z,99.99
2018-01-08T09:16:49.959Z,99.99
2018-01-08T09:17:59.936Z,99.99
2018-01-08T09:19:09.384Z,99.99
2018-01-08T09:20:19.364Z,99.99
2018-01-08T09:21:29.347Z,99.99
2018-01-08T09:22:38.817Z,99.99
2018-01-08T09:23:48.846Z,99.99
2018-01-08T09:24:58.820Z,99.99
2018-01-08T09:26:07.999Z,99.99
2018-01-08T09:27:17.977Z,99.99
2018-01-08T09:28:27.473Z,99.99
2018-01-08T09:29:37.451Z,99.99
2018-01-08T09:30:47.432Z,99.99
2018-01-08T09:31:57.413Z,99.99
2018-01-08T09:33:07.395Z,99.99
2018-01-08T09:34:17.412Z,99.99
2018-01-08T09:35:27.127Z,99.99
2018-01-08T09:36:37.118Z,99.99
2018-01-08T09:37:47.104Z,99.99
2018-01-08T09:38:56.819Z,99.99
2018-01-08T09:40:06.540Z,99.99
2018-01-08T09:41:16.313Z,99.99
2018-01-08T09:42:26.287Z,99.99
2018-01-08T09:43:35.746Z,99.99
2018-01-08T09:44:45.485Z,99.99
2018-01-08T09:45:55.509Z,99.99
2018-01-08T09:47:05.487Z,99.99
2018-01-08T09:48:15.200Z,99.99
2018-01-08T09:49:25.181Z,99.99
2018-01-08T09:50:34.679Z,99.99
2018-01-08T09:51:44.397Z,99.99
2018-01-08T09:52:54.377Z,99.99
2018-01-08T09:54:04.362Z,99.99
2018-01-08T09:55:14.083Z,99.99
2018-01-08T09:56:24.067Z,99.99
2018-01-08T09:57:33.781Z,99.99
2018-01-08T09:58:43.862Z,99.99
2018-01-08T09:59:53.849Z,99.99
2018-01-08T10:01:03.835Z,99.99
2018-01-08T10:02:13.817Z,99.99
2018-01-08T10:03:23.530Z,99.99
2018-01-08T10:04:33.256Z,99.99
2018-01-08T10:05:43.235Z,99.99
2018-01-08T10:06:53.217Z,99.99
2018-01-08T10:08:03.199Z,99.99
2018-01-08T10:09:13.182Z,99.99
2018-01-08T10:10:23.164Z,99.99
2018-01-08T10:11:32.891Z,99.99
2018-01-08T10:12:42.912Z,99.99
2018-01-08T10:13:52.895Z,99.99
2018-01-08T10:15:02.612Z,99.99
2018-01-08T10:16:12.326Z,99.99
2018-01-08T10:17:22.309Z,99.99
2018-01-08T10:18:32.292Z,99.99
2018-01-08T10:19:42.270Z,99.99
2018-01-08T10:20:51.992Z,99.99
2018-01-08T10:22:01.982Z,99.99
2018-01-08T10:23:11.966Z,99.99
2018-01-08T10:24:21.737Z,99.99
2018-01-08T10:25:31.452Z,99.99
2018-01-08T10:26:40.899Z,99.99
2018-01-08T10:27:50.879Z,99.99
2018-01-08T10:29:00.867Z,99.99
2018-01-08T10:30:10.850Z,99.33
2018-01-08T10:31:20.836Z,96.49
2018-01-08T10:32:30.553Z,97.77
2018-01-08T10:33:39.737Z,97.96
2018-01-08T10:34:49.449Z,98.71
2018-01-08T10:35:59.428Z,99.94
2018-01-08T10:37:09.417Z,99.99
2018-01-08T10:38:19.135Z,99.99
2018-01-08T10:39:29.168Z,99.99
2018-01-08T10:40:38.620Z,99.99
2018-01-08T10:41:48.605Z,99.99
2018-01-08T10:42:58.591Z,99.99
2018-01-08T10:44:08.588Z,99.99
2018-01-08T10:45:18.569Z,99.99
2018-01-08T10:46:28.561Z,99.99
2018-01-08T10:47:38.545Z,99.99
2018-01-08T10:48:48.267Z,99.99
2018-01-08T10:49:57.723Z,99.99
2018-01-08T10:51:07.549Z,99.99
2018-01-08T10:52:17.314Z,99.05
2018-01-08T10:53:27.303Z,98.58
2018-01-08T10:54:37.031Z,98.48
2018-01-08T10:55:47.020Z,98.2
2018-01-08T10:56:57.053Z,97.53
2018-01-08T10:58:06.506Z,97.53
2018-01-08T10:59:16.497Z,98.39
2018-01-08T11:00:26.480Z,99.33
2018-01-08T11:01:35.932Z,98.77
2018-01-08T11:02:45.928Z,97.53
2018-01-08T11:03:55.914Z,95.97
2018-01-08T11:05:05.899Z,94.46
2018-01-08T11:06:15.621Z,92.66
2018-01-08T11:07:25.077Z,91.48
2018-01-08T11:08:35.087Z,90.06
2018-01-08T11:09:44.808Z,90.15
2018-01-08T11:10:54.793Z,88.54
2018-01-08T11:12:04.519Z,87.45
2018-01-08T11:13:14.241Z,87.26
2018-01-08T11:14:24.272Z,87.54
2018-01-08T11:15:34.259Z,89.53
2018-01-08T11:16:43.988Z,91.24
2018-01-08T11:17:53.978Z,89.39
2018-01-08T11:19:03.966Z,87.4
2018-01-08T11:20:13.955Z,87.21
2018-01-08T11:21:23.944Z,86.26
2018-01-08T11:22:33.665Z,86.02
2018-01-08T11:23:43.654Z,85.31
2018-01-08T11:24:53.652Z,86.11
2018-01-08T11:26:03.646Z,87.25
2018-01-08T11:27:13.639Z,84.78
2018-01-08T11:28:22.831Z,82.32
2018-01-08T11:29:32.566Z,81.18
2018-01-08T11:30:42.289Z,80.48
2018-01-08T11:31:52.537Z,79.91
2018-01-08T11:33:02.312Z,79.63
2018-01-08T11:34:12.204Z,79.63
2018-01-08T11:35:21.843Z,78.58
2018-01-08T11:36:32.052Z,78.87
2018-01-08T11:37:42.018Z,79.25
2018-01-08T11:38:51.676Z,78.67
2018-01-08T11:40:01.872Z,78.87
2018-01-08T11:41:11.792Z,79.47
2018-01-08T11:42:21.660Z,81.56
2018-01-08T11:43:31.657Z,79.95
2018-01-08T11:44:41.662Z,76.44
2018-01-08T11:45:51.435Z,76.59
2018-01-08T11:47:01.491Z,76.5
2018-01-08T11:48:11.346Z,78.83
2018-01-08T11:49:21.269Z,80.19
2018-01-08T11:50:31.273Z,80.86
2018-01-08T11:51:40.735Z,82.28
2018-01-08T11:52:50.771Z,82.28
2018-01-08T11:54:00.844Z,81.71
2018-01-08T11:55:11.532Z,81.99
2018-01-08T11:56:21.403Z,82.04
2018-01-08T11:57:31.255Z,81.56
2018-01-08T11:58:41.373Z,81.47
2018-01-08T11:59:51.431Z,81.66
2018-01-08T12:01:01.187Z,82.23
2018-01-08T12:02:10.918Z,81.75
2018-01-08T12:03:20.448Z,81.75
2018-01-08T12:04:30.247Z,81.27
2018-01-08T12:05:40.025Z,80.33
2018-01-08T12:06:49.803Z,77.14
2018-01-08T12:07:59.406Z,78.05
2018-01-08T12:09:08.667Z,78.53
2018-01-08T12:10:18.617Z,79.85
2018-01-08T12:11:28.462Z,78.95
2018-01-08T12:12:38.388Z,80.27
2018-01-08T12:13:48.129Z,78.75
2018-01-08T12:14:57.858Z,78.7
2018-01-08T12:16:07.593Z,78.03
2018-01-08T12:17:17.057Z,77.7
2018-01-08T12:18:26.801Z,77.41
2018-01-08T12:19:36.795Z,76.46
2018-01-08T12:20:46.808Z,75.84
2018-01-08T12:21:56.266Z,75.55
2018-01-08T12:23:05.995Z,74.22
2018-01-08T12:24:17.005Z,73.59
2018-01-08T12:25:26.750Z,74.54
2018-01-08T12:26:36.862Z,74.16
2018-01-08T12:27:46.591Z,73.02
2018-01-08T12:28:56.587Z,71.22
2018-01-08T12:30:06.320Z,71.22
2018-01-08T12:31:16.051Z,70.54
2018-01-08T12:32:26.108Z,70.36
2018-01-08T12:33:36.114Z,69.02
2018-01-08T12:34:46.147Z,69.41
2018-01-08T12:35:55.874Z,69.37
2018-01-08T12:37:05.869Z,69.75
2018-01-08T12:38:15.870Z,69.05
2018-01-08T12:39:25.937Z,68.77
2018-01-08T12:40:35.949Z,69.21
2018-01-08T12:41:46.290Z,69.87
2018-01-08T12:42:56.284Z,70.15
2018-01-08T12:44:06.012Z,69.3
2018-01-08T12:45:16.007Z,68.23
2018-01-08T12:46:26.002Z,69.13
2018-01-08T12:47:35.515Z,71.6
2018-01-08T12:48:45.516Z,71.64
2018-01-08T12:49:55.540Z,71.55
2018-01-08T12:51:05.275Z,70.82
2018-01-08T12:52:15.016Z,70.73
2018-01-08T12:53:25.011Z,70.35
2018-01-08T12:54:34.471Z,70.06
2018-01-08T12:55:44.466Z,70.48
2018-01-08T12:56:53.929Z,70.19
2018-01-08T12:58:03.926Z,69.62
2018-01-08T12:59:13.663Z,69.71
2018-01-08T13:00:23.665Z,69.53
2018-01-08T13:01:33.128Z,69.43
2018-01-08T13:02:43.122Z,69.53
2018-01-08T13:03:53.118Z,69.34
2018-01-08T13:05:02.872Z,68.29
2018-01-08T13:06:12.606Z,67.34
2018-01-08T13:07:22.604Z,66.93
2018-01-08T13:08:32.598Z,66.99
2018-01-08T13:09:42.059Z,67.85
2018-01-08T13:10:52.114Z,67.81
2018-01-08T13:12:02.116Z,67.71
2018-01-08T13:13:12.125Z,68.57
2018-01-08T13:14:22.134Z,68.85
2018-01-08T13:15:32.125Z,70.28
2018-01-08T13:16:42.120Z,70.09
2018-01-08T13:17:52.113Z,69.04
2018-01-08T13:19:02.108Z,69.23
2018-01-08T13:20:11.844Z,69.17
2018-01-08T13:21:21.571Z,69.17
2018-01-08T13:22:31.304Z,68.6
2018-01-08T13:23:41.297Z,68.38
2018-01-08T13:24:51.297Z,68.19
2018-01-08T13:26:01.024Z,68.57
2018-01-08T13:27:10.749Z,69.38
2018-01-08T13:28:20.277Z,70.53
2018-01-08T13:29:30.272Z,71.66
2018-01-08T13:30:39.735Z,71.57
2018-01-08T13:31:49.511Z,72.1
2018-01-08T13:32:58.970Z,72.29
2018-01-08T13:34:09.033Z,71.62
2018-01-08T13:35:18.757Z,72.1
2018-01-08T13:36:28.758Z,72.73
2018-01-08T13:37:38.748Z,73.68
2018-01-08T13:38:48.744Z,74.49
2018-01-08T13:39:58.474Z,75.53
2018-01-08T13:41:08.209Z,77.48
2018-01-08T13:42:18.201Z,78.61
2018-01-08T13:43:27.666Z,78.8
2018-01-08T13:44:37.658Z,78.9
2018-01-08T13:45:47.652Z,79.18
2018-01-08T13:46:57.376Z,79.05
2018-01-08T13:48:07.370Z,79.43
2018-01-08T13:49:17.095Z,79.9
2018-01-08T13:50:26.697Z,79.61
2018-01-08T13:51:36.687Z,80.65
2018-01-08T13:52:46.673Z,81.65
2018-01-08T13:53:56.720Z,82.98
2018-01-08T13:55:06.708Z,84.96
2018-01-08T13:56:16.435Z,85.53
2018-01-08T13:57:26.423Z,85.72
2018-01-08T13:58:36.146Z,85.62
2018-01-08T13:59:46.138Z,85.77
2018-01-08T14:00:55.860Z,85.86
2018-01-08T14:02:05.851Z,86.43
2018-01-08T14:03:15.579Z,87.28
2018-01-08T14:04:25.606Z,88.6
2018-01-08T14:05:35.328Z,89.83
2018-01-08T14:06:45.314Z,90.21
2018-01-08T14:07:55.034Z,90.4
2018-01-08T14:09:05.067Z,91.44
2018-01-08T14:10:15.055Z,91.67
2018-01-08T14:11:25.046Z,92.8
2018-01-08T14:12:34.501Z,93.56
2018-01-08T14:13:44.490Z,93.37
2018-01-08T14:14:54.213Z,92.99
2018-01-08T14:16:04.197Z,92.71
2018-01-08T14:17:14.187Z,92.24
2018-01-08T14:18:24.173Z,92.43
2018-01-08T14:19:33.636Z,91.86
2018-01-08T14:20:43.728Z,92.33
2018-01-08T14:21:53.726Z,96.01
2018-01-08T14:23:03.711Z,99.99
2018-01-08T14:24:13.429Z,99.99
2018-01-08T14:25:23.412Z,99.99
2018-01-08T14:26:33.391Z,99.99
2018-01-08T14:27:43.109Z,99.99
2018-01-08T14:28:53.089Z,99.99
2018-01-08T14:30:02.812Z,99.99
2018-01-08T14:31:12.594Z,99.99
2018-01-08T14:32:22.314Z,99.99
2018-01-08T14:33:32.297Z,99.99
2018-01-08T14:34:42.287Z,99.99
2018-01-08T14:35:52.012Z,99.99
2018-01-08T14:37:01.997Z,99.99
2018-01-08T14:38:12.162Z,99.99
2018-01-08T14:39:22.157Z,99.99
2018-01-08T14:40:31.885Z,99.88
2018-01-08T14:41:41.876Z,99.99
2018-01-08T14:42:51.856Z,99.99
2018-01-08T14:44:01.940Z,99.99
2018-01-08T14:45:11.925Z,99.99
2018-01-08T14:46:21.918Z,99.98
2018-01-08T14:47:31.632Z,99.99
2018-01-08T14:48:41.351Z,99.99
2018-01-08T14:49:51.122Z,99.99
2018-01-08T14:51:00.876Z,99.99
2018-01-08T14:52:10.877Z,99.99
2018-01-08T14:53:20.334Z,99.99
2018-01-08T14:54:30.053Z,99.99
2018-01-08T14:55:39.779Z,99.99
2018-01-08T14:56:49.765Z,99.99
2018-01-08T14:57:59.864Z,99.99
2018-01-08T14:59:09.849Z,99.99
2018-01-08T15:00:19.838Z,99.99
2018-01-08T15:01:29.835Z,99.99
2018-01-08T15:02:39.554Z,99.99
2018-01-08T15:03:49.534Z,99.99